Weather observations for the past three days for
Gastonia Municipal Airport
Imperial (Metric)
Date Time (edt) Wind (mph) Vis. (mi.) Weather Sky Cond. Temperature (ºF) Relative Humidity Wind Chill (°F) Heat Index (°F) Pressure Precipitation (in)
Air Dwpt 6 hour altimeter (in) sea level (mb) 1 hr 3 hr 6 hr
Max. Min.
06 04:54 S 5 10.00 Fair CLR 61 52 72% 29.94 1013.3
06 03:54 Vrbl 6 G 16 10.00 Mostly Cloudy BKN090 62.1 53.1 73% 29.94 1013.4
06 02:54 S 8 10.00 Fair CLR 62.1 53.1 73% 29.94 1013.3
06 01:54 S 8 G 16 10.00 Fair CLR 63 52 73 63 68% 29.96 1014.1
06 00:54 S 8 G 20 10.00 Fair CLR 64.9 52 63% 29.96 1014.1
05 23:54 S 8 G 18 10.00 A Few Clouds FEW070 66 51.1 59% 29.95 1013.8
05 22:54 S 3 10.00 A Few Clouds FEW110 66 48 52% 29.94 1013.6
05 21:54 S 3 10.00 Fair CLR 66.9 48 51% 29.95 1013.8
05 20:54 S 3 10.00 Fair CLR 68 48 49% 29.94 1013.5
05 19:54 SW 5 10.00 Fair CLR 73 46.9 80.1 73 40% 29.93 1013.0
05 18:54 SW 10 G 20 10.00 Fair CLR 77 46 33% 78 29.93 1013.2
05 17:54 S 10 10.00 A Few Clouds FEW075 77 46.9 35% 78 29.94 1013.3
05 16:54 SW 10 G 22 10.00 A Few Clouds FEW075 79 46.9 32% 79 29.94 1013.4
05 15:54 SW 13 G 25 10.00 A Few Clouds FEW075 78.1 46 32% 78 29.96 1014.2
05 14:54 SW 13 G 22 10.00 Partly Cloudy SCT070 78.1 48 35% 78 29.99 1014.9
05 13:54 S 15 G 26 10.00 Partly Cloudy SCT070 75.9 46.9 78.1 55.9 36% 78 30.01 1015.7
05 12:54 SW 8 G 18 10.00 A Few Clouds FEW060 75 48.9 40% 77 30.01 1015.9
05 11:54 Vrbl 7 G 20 10.00 Fair CLR 73 51.1 46% 30.04 1016.7
05 10:54 SW 10 G 18 10.00 Fair CLR 69.1 52 55% 30.04 1017.0
05 09:54 SW 7 10.00 Fair CLR 66.9 54 63% 30.03 1016.6
05 08:54 SW 8 10.00 Fair CLR 62.1 52 70% 30.04 1016.6
05 07:54 S 3 10.00 Fair CLR 55.9 48.9 61 50 77% 30.03 1016.4
05 06:54 Calm 10.00 Fair CLR 51.1 48 89% 30.01 1016.0
05 05:54 SW 3 10.00 Fair CLR 53.1 46.9 80% 30 1015.6
05 04:54 SW 6 10.00 Fair CLR 55.9 46.9 72% 29.99 1015.2
05 03:54 SW 7 10.00 Fair CLR 57.9 46.9 67% 29.98 1014.8
05 02:54 SW 7 10.00 Fair CLR 60.1 46 60% 29.97 1014.5
05 01:54 SW 8 10.00 Fair CLR 61 45 72 60.1 56% 29.98 1014.7
05 00:54 S 6 10.00 Fair CLR 60.1 42.1 52% 29.99 1015.0
04 23:54 SW 6 10.00 Fair CLR 63 42.1 47% 29.99 1015.0
04 22:54 SW 6 10.00 Fair CLR 61 41 48% 29.99 1015.0
04 21:54 S 5 10.00 Fair CLR 63 42.1 47% 29.98 1014.7
04 20:54 SW 3 10.00 Fair CLR 66.9 39.9 37% 29.96 1014.2
04 19:54 S 7 10.00 Fair CLR 72 39 79 72 30% 29.94 1013.8
04 18:54 S 9 G 17 10.00 Fair CLR 75 39 27% 77 29.93 1013.3
04 17:54 SW 9 G 18 10.00 Fair CLR 77 37.9 24% 77 29.94 1013.5
04 16:54 Vrbl 7 10.00 Fair CLR 79 37.9 23% 78 29.94 1013.6
04 15:54 S 8 10.00 Fair CLR 78.1 39 25% 78 29.96 1014.3
04 14:54 SE 7 10.00 Fair CLR 77 42.1 29% 78 29.98 1014.9
04 13:54 Calm 10.00 Fair CLR 75 41 77 48.9 29% 77 30 1015.5
04 12:54 S 6 10.00 Fair CLR 73 41 32% 30.01 1016.1
04 11:54 Calm 10.00 Fair CLR 69.1 41 36% 30.05 1017.4
04 10:54 Vrbl 3 10.00 Fair CLR 68 43 40% 30.05 1017.3
04 09:54 Calm 10.00 Fair CLR 62.1 46.9 58% 30.05 1017.5
04 08:54 Calm 10.00 Fair CLR 55.9 45 67% 30.05 1017.3
04 07:54 S 3 10.00 Fair CLR 48.9 44.1 48.9 41 83% 30.03 1016.9
04 06:54 SW 3 10.00 Fair CLR 42.1 39.9 92% 30.03 1017.0
04 05:54 Calm 10.00 Fair CLR 42.1 39.9 92% 30.03 1016.9
04 04:54 S 3 10.00 Fair CLR 43 39.9 89% 30.03 1016.7
04 03:54 SW 3 10.00 Fair CLR 44.1 39.9 85% 30.02 1016.3
04 02:54 Calm 10.00 Fair CLR 45 41 86% 30.02 1016.5
04 01:54 Calm 10.00 Fair CLR 46 41 63 46 83% 30.03 1016.8
04 00:54 SW 3 10.00 Fair CLR 46.9 41 80% 30.03 1016.8
03 23:54 Calm 10.00 Fair CLR 48.9 41 74% 30.04 1017.1
03 22:54 Calm 10.00 Fair CLR 51.1 41 69% 30.04 1017.3
03 21:54 SW 3 10.00 Fair CLR 53.1 41 64% 30.02 1016.6
03 20:54 Calm 10.00 Fair CLR 57 39.9 53% 30.01 1016.1
03 19:54 S 3 10.00 Fair CLR 63 37 70 63 38% 29.99 1015.6
03 18:54 SW 6 10.00 Fair CLR 66.9 35.1 31% 29.99 1015.7
03 17:54 Calm 10.00 Fair CLR 69.1 37 31% 30 1015.9
03 16:54 Vrbl 3 10.00 Fair CLR 69.1 35.1 29% 30.01 1016.3
03 15:54 SW 6 10.00 Fair CLR 68 35.1 30% 30.04 1017.2
03 14:54 Vrbl 6 G 17 10.00 Fair CLR 66 34 30% 30.06 1018.0
03 13:54 Vrbl 7 10.00 Fair CLR 66.9 37 66.9 44.1 33% 30.08 1018.6
03 12:54 Calm 10.00 Fair CLR 63 36 37% 30.11 1019.6
03 11:54 NW 8 10.00 Fair CLR 63 37 38% 30.13 1020.2
03 10:54 NE 8 10.00 Fair CLR 59 35.1 41% 30.14 1020.6
03 09:54 N 6 10.00 Fair CLR 57 34 42% 30.13 1020.4
03 08:54 N 7 10.00 Fair CLR 52 35.1 53% 30.13 1020.4
03 07:54 Calm 10.00 Fair CLR 44.1 41 44.1 37 89% 30.12 1020.0
03 06:54 Calm 10.00 Fair CLR 37 36 96% 30.1 1019.4
03 05:54 Calm 10.00 Fair CLR 37.9 35.1 89% 30.07 1018.2
Date Time (edt) Wind (mph) Vis. (mi.) Weather Sky Cond. Air Dwpt Max. Min. Relative Humidity Wind Chill (°F) Heat Index (°F) altimeter (in) sea level (mb) 1 hr 3 hr 6 hr
6 hour
Temperature (ºF) Pressure Precipitation (in)